Time;durP1;ratioP1;P1;durP2;ratioP2;P2;SDS_P1;SDS_P2;PMS_P1;PMS_P2;Temp;Humidity;BMP_temperature;BMP_pressure;BME280_temperature;BME280_humidity;BME280_pressure;Samples;Min_cycle;Max_cycle;Signal;HPM_P1;HPM_P2
2022/03/01 00:02:17;;;;;;;32.97;29.60;;;;;;;;;;4975192;28;20192;-84
2022/03/01 00:04:45;;;;;;;34.17;30.83;;;;;;;;;;4975276;28;20224;-84
2022/03/01 00:07:12;;;;;;;31.55;28.67;;;;;;;;;;4957728;28;20254;-84
2022/03/01 00:09:40;;;;;;;34.05;30.45;;;;;;;;;;4958453;28;20674;-84
2022/03/01 00:12:09;;;;;;;32.53;29.52;;;;;;;;;;4974775;28;20192;-84
2022/03/01 00:14:37;;;;;;;34.38;31.08;;;;;;;;;;4974699;28;20227;-83
2022/03/01 00:17:05;;;;;;;34.10;30.60;;;;;;;;;;4957822;28;20617;-84
2022/03/01 00:19:32;;;;;;;35.60;31.80;;;;;;;;;;4974959;28;20569;-84
2022/03/01 00:22:00;;;;;;;31.65;28.65;;;;;;;;;;4975190;28;20549;-84
2022/03/01 00:24:28;;;;;;;33.05;29.65;;;;;;;;;;4974918;28;20196;-84
2022/03/01 00:26:55;;;;;;;33.58;30.15;;;;;;;;;;4974692;28;20192;-83
2022/03/01 00:29:24;;;;;;;33.65;30.25;;;;;;;;;;4975193;28;20191;-84
2022/03/01 00:31:51;;;;;;;31.55;28.60;;;;;;;;;;4974868;28;20191;-84
2022/03/01 00:34:19;;;;;;;34.55;31.08;;;;;;;;;;4975107;28;20315;-84
2022/03/01 00:36:46;;;;;;;33.78;30.23;;;;;;;;;;4975125;28;20207;-83
2022/03/01 00:39:13;;;;;;;33.92;30.55;;;;;;;;;;4976004;28;20231;-83
2022/03/01 00:41:41;;;;;;;34.40;31.10;;;;;;;;;;4978161;28;20192;-84
2022/03/01 00:44:09;;;;;;;34.80;31.10;;;;;;;;;;4977850;28;20817;-84
2022/03/01 00:46:38;;;;;;;34.08;30.90;;;;;;;;;;4977691;28;20305;-84
2022/03/01 00:49:05;;;;;;;32.42;29.58;;;;;;;;;;4977916;28;20628;-84
2022/03/01 00:51:33;;;;;;;33.42;30.17;;;;;;;;;;4977528;28;20218;-84
2022/03/01 00:54:00;;;;;;;34.78;31.38;;;;;;;;;;4977601;28;20198;-83
2022/03/01 00:56:28;;;;;;;32.97;29.50;;;;;;;;;;4977310;28;20198;-84
2022/03/01 00:58:55;;;;;;;34.17;31.08;;;;;;;;;;4977297;28;20195;-84
2022/03/01 01:01:22;;;;;;;33.17;30.08;;;;;;;;;;4977495;28;20596;-84
2022/03/01 01:03:51;;;;;;;35.03;31.40;;;;;;;;;;4977192;28;20289;-84
2022/03/01 01:06:19;;;;;;;34.72;31.27;;;;;;;;;;4976914;28;20211;-84
2022/03/01 01:08:46;;;;;;;33.85;30.45;;;;;;;;;;4977110;28;20247;-84
2022/03/01 01:11:13;;;;;;;33.45;30.25;;;;;;;;;;4977927;28;20203;-83
2022/03/01 01:13:41;;;;;;;34.05;30.70;;;;;;;;;;4978207;28;20203;-84
2022/03/01 01:16:08;;;;;;;33.70;30.20;;;;;;;;;;4977842;28;20195;-83
2022/03/01 01:18:38;;;;;;;32.92;29.80;;;;;;;;;;4977479;28;20195;-84
2022/03/01 01:21:07;;;;;;;34.05;30.70;;;;;;;;;;4977786;28;20203;-84
2022/03/01 01:23:35;;;;;;;33.67;30.25;;;;;;;;;;4977678;28;20218;-84
2022/03/01 01:26:02;;;;;;;35.90;32.22;;;;;;;;;;4977701;28;20210;-84
2022/03/01 01:28:29;;;;;;;34.47;31.17;;;;;;;;;;4977394;28;20677;-84
2022/03/01 01:30:57;;;;;;;35.20;31.85;;;;;;;;;;4977242;28;20258;-84
2022/03/01 01:33:24;;;;;;;35.30;31.80;;;;;;;;;;4977652;28;20198;-84
2022/03/01 01:35:52;;;;;;;33.22;29.88;;;;;;;;;;4960496;28;20636;-82
2022/03/01 01:38:20;;;;;;;34.00;30.65;;;;;;;;;;4977436;28;20226;-83
2022/03/01 01:40:48;;;;;;;34.35;30.92;;;;;;;;;;4959805;28;20199;-84
2022/03/01 01:43:15;;;;;;;33.95;30.63;;;;;;;;;;4976972;28;20230;-84
2022/03/01 01:45:43;;;;;;;33.45;30.63;;;;;;;;;;4976725;28;20243;-84
2022/03/01 01:48:10;;;;;;;35.08;31.67;;;;;;;;;;4977181;28;20620;-84
2022/03/01 01:50:37;;;;;;;33.40;30.48;;;;;;;;;;4976138;28;20657;-83
2022/03/01 01:53:05;;;;;;;32.67;29.63;;;;;;;;;;4976888;28;20188;-84
2022/03/01 01:55:34;;;;;;;32.13;29.10;;;;;;;;;;4976880;28;20246;-84
2022/03/01 01:58:01;;;;;;;32.85;29.70;;;;;;;;;;4977022;28;20202;-84
2022/03/01 02:00:29;;;;;;;33.40;30.25;;;;;;;;;;4977007;28;20585;-83
2022/03/01 02:02:58;;;;;;;32.25;29.15;;;;;;;;;;4977251;28;20254;-84
2022/03/01 02:05:26;;;;;;;32.25;29.02;;;;;;;;;;4976686;28;20196;-83
2022/03/01 02:07:53;;;;;;;34.88;31.17;;;;;;;;;;4976793;28;20219;-84
2022/03/01 02:10:21;;;;;;;34.72;31.20;;;;;;;;;;4976587;28;20246;-84
2022/03/01 02:12:50;;;;;;;34.65;31.35;;;;;;;;;;4976724;28;20199;-84
2022/03/01 02:15:18;;;;;;;34.65;30.95;;;;;;;;;;4976660;28;20192;-83
2022/03/01 02:17:45;;;;;;;35.58;31.95;;;;;;;;;;4976506;28;20219;-83
2022/03/01 02:20:16;;;;;;;33.30;29.85;;;;;;;;;;4976151;28;20195;-83
2022/03/01 02:22:44;;;;;;;33.25;29.95;;;;;;;;;;4976293;28;20226;-83
2022/03/01 02:25:11;;;;;;;35.25;31.75;;;;;;;;;;4959069;28;20207;-83
2022/03/01 02:27:39;;;;;;;32.35;29.30;;;;;;;;;;4976164;28;20192;-81
2022/03/01 02:30:07;;;;;;;35.40;31.92;;;;;;;;;;4976153;28;20203;-83
2022/03/01 02:32:36;;;;;;;35.33;31.75;;;;;;;;;;4976098;28;20198;-83
2022/03/01 02:35:04;;;;;;;34.65;31.13;;;;;;;;;;4975950;28;20223;-83
2022/03/01 02:37:32;;;;;;;34.88;31.13;;;;;;;;;;4975845;28;20207;-82
2022/03/01 02:40:00;;;;;;;35.30;31.77;;;;;;;;;;4976065;28;20215;-83
2022/03/01 02:42:30;;;;;;;33.88;30.42;;;;;;;;;;4976143;28;20211;-84
2022/03/01 02:44:58;;;;;;;34.35;31.02;;;;;;;;;;4957958;28;20274;-83
2022/03/01 02:47:25;;;;;;;34.63;31.00;;;;;;;;;;4975830;28;20345;-84
2022/03/01 02:49:52;;;;;;;35.63;32.22;;;;;;;;;;4975869;28;20747;-83
2022/03/01 02:52:20;;;;;;;35.40;31.75;;;;;;;;;;4958489;28;20278;-83
2022/03/01 02:54:49;;;;;;;33.40;30.20;;;;;;;;;;4975816;28;20198;-84
2022/03/01 02:57:16;;;;;;;32.45;29.40;;;;;;;;;;4975787;28;20226;-83
2022/03/01 02:59:45;;;;;;;34.58;30.92;;;;;;;;;;4975723;28;20196;-83
2022/03/01 03:02:12;;;;;;;33.38;29.98;;;;;;;;;;4958271;28;20200;-83
2022/03/01 03:04:40;;;;;;;33.63;29.85;;;;;;;;;;4975606;28;20235;-83
2022/03/01 03:07:07;;;;;;;33.90;30.33;;;;;;;;;;4975438;28;20192;-82
2022/03/01 03:09:35;;;;;;;32.28;29.13;;;;;;;;;;4975559;28;20219;-83
2022/03/01 03:12:04;;;;;;;37.85;33.85;;;;;;;;;;4975439;28;20192;-82
2022/03/01 03:14:31;;;;;;;35.53;32.13;;;;;;;;;;4975463;28;20597;-85
2022/03/01 03:16:59;;;;;;;33.78;30.65;;;;;;;;;;4958097;28;20251;-82
2022/03/01 03:19:26;;;;;;;35.35;31.55;;;;;;;;;;4975540;28;20204;-83
2022/03/01 03:21:54;;;;;;;34.65;31.00;;;;;;;;;;4975336;28;20246;-83
2022/03/01 03:24:21;;;;;;;33.08;29.52;;;;;;;;;;4975060;28;20199;-82
2022/03/01 03:26:49;;;;;;;34.40;31.08;;;;;;;;;;4975386;28;20598;-83
2022/03/01 03:29:18;;;;;;;34.90;31.48;;;;;;;;;;4974883;28;20269;-82
2022/03/01 03:31:46;;;;;;;34.65;31.30;;;;;;;;;;4974968;28;20187;-83
2022/03/01 03:34:13;;;;;;;36.60;32.28;;;;;;;;;;4975357;28;20254;-83
2022/03/01 03:36:42;;;;;;;33.92;30.30;;;;;;;;;;4975071;28;20187;-83
2022/03/01 03:39:11;;;;;;;32.72;29.50;;;;;;;;;;4975173;28;20261;-83
2022/03/01 03:41:38;;;;;;;34.35;30.85;;;;;;;;;;4975039;28;20554;-83
2022/03/01 03:44:06;;;;;;;32.53;29.42;;;;;;;;;;4975056;28;20714;-83
2022/03/01 03:46:35;;;;;;;33.15;30.00;;;;;;;;;;4974622;28;20239;-83
2022/03/01 03:49:03;;;;;;;33.10;29.90;;;;;;;;;;4975257;28;20254;-83
2022/03/01 03:51:30;;;;;;;35.90;31.98;;;;;;;;;;4974758;28;20194;-83
2022/03/01 03:53:58;;;;;;;34.40;30.92;;;;;;;;;;4975032;28;20202;-84
2022/03/01 03:56:25;;;;;;;32.22;29.02;;;;;;;;;;4974928;28;20282;-84
2022/03/01 03:58:55;;;;;;;33.00;29.60;;;;;;;;;;4958039;28;20187;-82
2022/03/01 04:01:23;;;;;;;33.10;29.80;;;;;;;;;;4974820;28;20191;-82
2022/03/01 04:03:52;;;;;;;32.78;29.52;;;;;;;;;;4974950;28;20601;-83
2022/03/01 04:06:20;;;;;;;35.78;32.17;;;;;;;;;;4974986;28;20214;-84
2022/03/01 04:08:47;;;;;;;34.42;30.85;;;;;;;;;;4974697;28;20241;-84
2022/03/01 04:11:15;;;;;;;32.97;29.25;;;;;;;;;;4974545;28;20638;-84
2022/03/01 04:13:42;;;;;;;32.75;29.85;;;;;;;;;;4975140;28;20199;-83
2022/03/01 04:16:09;;;;;;;33.60;30.13;;;;;;;;;;4978672;28;20198;-83
2022/03/01 04:18:37;;;;;;;35.63;32.10;;;;;;;;;;4978560;28;20203;-84
2022/03/01 04:21:06;;;;;;;35.22;31.75;;;;;;;;;;4978290;28;20211;-84
2022/03/01 04:23:33;;;;;;;33.67;30.17;;;;;;;;;;4978708;28;20297;-84
2022/03/01 04:26:00;;;;;;;33.50;29.63;;;;;;;;;;4978537;28;20548;-84
2022/03/01 04:28:28;;;;;;;32.72;29.63;;;;;;;;;;4961176;28;20199;-83
2022/03/01 04:30:55;;;;;;;31.23;28.23;;;;;;;;;;4978484;28;20203;-83
2022/03/01 04:33:23;;;;;;;33.55;30.13;;;;;;;;;;4978468;28;20549;-84
2022/03/01 04:35:51;;;;;;;34.13;30.77;;;;;;;;;;4978514;28;20215;-83
2022/03/01 04:38:20;;;;;;;35.72;31.92;;;;;;;;;;4960839;28;20725;-84
2022/03/01 04:40:48;;;;;;;34.20;30.90;;;;;;;;;;4978317;28;20203;-83
2022/03/01 04:43:15;;;;;;;35.85;32.35;;;;;;;;;;4978389;28;20535;-83
2022/03/01 04:45:42;;;;;;;33.13;29.73;;;;;;;;;;4977882;28;20262;-82
2022/03/01 04:48:10;;;;;;;32.63;29.52;;;;;;;;;;4978134;28;20203;-82
2022/03/01 04:50:37;;;;;;;33.88;30.45;;;;;;;;;;4978052;28;20233;-83
2022/03/01 04:53:05;;;;;;;36.00;30.77;;;;;;;;;;4977934;28;20537;-84
2022/03/01 04:55:34;;;;;;;34.60;31.05;;;;;;;;;;4977755;28;20286;-83
2022/03/01 04:58:01;;;;;;;33.47;30.27;;;;;;;;;;4977765;28;20689;-83
2022/03/01 05:00:29;;;;;;;37.40;31.00;;;;;;;;;;4978107;28;20219;-83
2022/03/01 05:02:57;;;;;;;34.90;31.25;;;;;;;;;;4978009;28;20195;-83
2022/03/01 05:05:24;;;;;;;33.08;29.88;;;;;;;;;;4977770;28;20198;-83
2022/03/01 05:07:51;;;;;;;34.00;30.75;;;;;;;;;;4977628;28;20196;-83
2022/03/01 05:10:19;;;;;;;35.63;32.15;;;;;;;;;;4977662;28;20227;-83
2022/03/01 05:12:49;;;;;;;32.00;29.20;;;;;;;;;;4977811;28;20196;-82
2022/03/01 05:15:17;;;;;;;34.92;30.67;;;;;;;;;;4977666;28;20192;-83
2022/03/01 05:17:45;;;;;;;35.50;32.00;;;;;;;;;;4977820;28;20191;-83
2022/03/01 05:20:13;;;;;;;36.17;32.55;;;;;;;;;;4977826;28;20569;-84
2022/03/01 05:22:40;;;;;;;34.95;31.17;;;;;;;;;;4977251;28;20669;-83
2022/03/01 05:25:10;;;;;;;33.95;30.35;;;;;;;;;;4977455;28;20246;-83
2022/03/01 05:27:37;;;;;;;35.28;31.70;;;;;;;;;;4977521;28;20231;-83
2022/03/01 05:30:07;;;;;;;33.10;29.85;;;;;;;;;;4959963;28;20290;-83
2022/03/01 05:32:35;;;;;;;36.45;32.20;;;;;;;;;;4977170;28;20192;-83
2022/03/01 05:35:02;;;;;;;34.33;30.70;;;;;;;;;;4977113;28;20246;-82
2022/03/01 05:37:30;;;;;;;33.88;30.48;;;;;;;;;;4977029;28;20223;-83
2022/03/01 05:39:57;;;;;;;33.38;30.15;;;;;;;;;;4977210;28;20202;-83
2022/03/01 05:42:24;;;;;;;34.72;30.90;;;;;;;;;;4977087;28;20203;-83
2022/03/01 05:44:52;;;;;;;36.60;32.72;;;;;;;;;;4976844;28;20239;-83
2022/03/01 05:47:21;;;;;;;34.80;31.23;;;;;;;;;;4977054;28;20199;-84
2022/03/01 05:49:48;;;;;;;34.05;30.48;;;;;;;;;;4976764;28;20230;-84
2022/03/01 05:52:16;;;;;;;37.97;31.65;;;;;;;;;;4977175;28;20192;-83
2022/03/01 05:54:43;;;;;;;35.42;31.42;;;;;;;;;;4976661;28;20198;-83
2022/03/01 05:57:10;;;;;;;35.25;31.67;;;;;;;;;;4976807;28;20192;-84
2022/03/01 05:59:38;;;;;;;33.92;30.45;;;;;;;;;;4976886;28;20709;-84
2022/03/01 06:02:05;;;;;;;35.25;31.35;;;;;;;;;;4976498;28;20195;-83
2022/03/01 06:04:34;;;;;;;32.97;29.80;;;;;;;;;;4976855;28;20196;-83
2022/03/01 06:07:02;;;;;;;37.08;33.03;;;;;;;;;;4976177;28;20238;-83
2022/03/01 06:09:29;;;;;;;34.70;31.30;;;;;;;;;;4959826;28;20708;-83
2022/03/01 06:11:57;;;;;;;33.40;29.77;;;;;;;;;;4976668;28;20653;-84
2022/03/01 06:14:25;;;;;;;33.38;30.27;;;;;;;;;;4943233;28;20246;-82
2022/03/01 06:16:52;;;;;;;33.92;30.63;;;;;;;;;;4975836;28;20199;-82
2022/03/01 06:19:19;;;;;;;34.50;31.00;;;;;;;;;;4975961;28;20662;-81
2022/03/01 06:21:48;;;;;;;33.13;29.92;;;;;;;;;;4975840;28;20645;-84
2022/03/01 06:24:16;;;;;;;34.47;30.95;;;;;;;;;;4976306;28;20191;-83
2022/03/01 06:26:43;;;;;;;35.45;31.83;;;;;;;;;;4975864;28;20246;-83
2022/03/01 06:29:11;;;;;;;34.97;31.50;;;;;;;;;;4975648;28;20207;-82
2022/03/01 06:31:38;;;;;;;34.20;30.67;;;;;;;;;;4958424;28;20206;-81
2022/03/01 06:34:06;;;;;;;34.92;31.55;;;;;;;;;;4975671;28;20196;-82
2022/03/01 06:36:33;;;;;;;32.63;29.13;;;;;;;;;;4974981;28;20825;-82
2022/03/01 06:39:02;;;;;;;34.50;30.90;;;;;;;;;;4975764;28;20203;-82
2022/03/01 06:41:29;;;;;;;36.50;32.75;;;;;;;;;;4975205;28;20192;-81
2022/03/01 06:43:56;;;;;;;35.15;31.88;;;;;;;;;;4975543;28;20274;-82
2022/03/01 06:46:25;;;;;;;34.25;30.70;;;;;;;;;;4957940;28;20283;-81
2022/03/01 06:48:52;;;;;;;34.88;31.63;;;;;;;;;;4974969;28;20630;-81
2022/03/01 06:51:20;;;;;;;33.88;30.48;;;;;;;;;;4957617;28;20281;-81
2022/03/01 06:53:47;;;;;;;33.15;29.55;;;;;;;;;;4974827;28;20199;-82
2022/03/01 06:56:17;;;;;;;31.10;28.30;;;;;;;;;;4975191;28;20242;-82
2022/03/01 06:58:45;;;;;;;32.92;29.85;;;;;;;;;;4975171;28;20275;-81
2022/03/01 07:01:12;;;;;;;33.55;30.52;;;;;;;;;;4974847;28;20278;-82
2022/03/01 07:03:42;;;;;;;35.25;31.88;;;;;;;;;;4974742;28;20700;-84
2022/03/01 07:06:09;;;;;;;33.88;30.58;;;;;;;;;;4975278;28;20258;-82
2022/03/01 07:08:37;;;;;;;32.72;29.70;;;;;;;;;;4957220;28;20266;-81
2022/03/01 07:11:04;;;;;;;33.53;30.20;;;;;;;;;;4974783;28;20230;-81
2022/03/01 07:13:33;;;;;;;27.33;25.23;;;;;;;;;;4974956;28;20222;-81
2022/03/01 07:16:01;;;;;;;33.83;30.75;;;;;;;;;;4974499;28;20199;-81
2022/03/01 07:18:28;;;;;;;34.05;30.80;;;;;;;;;;4957365;28;20210;-82
2022/03/01 07:20:55;;;;;;;35.40;30.30;;;;;;;;;;4957080;28;20203;-81
2022/03/01 07:23:23;;;;;;;34.38;31.08;;;;;;;;;;4974339;28;20187;-80
2022/03/01 07:25:50;;;;;;;33.30;29.92;;;;;;;;;;4974562;28;20630;-80
2022/03/01 07:28:17;;;;;;;33.20;30.30;;;;;;;;;;4974663;28;20192;-86
2022/03/01 07:30:46;;;;;;;33.30;30.27;;;;;;;;;;4974933;28;20227;-82
2022/03/01 07:33:14;;;;;;;28.25;25.85;;;;;;;;;;4974824;28;20274;-84
2022/03/01 07:35:41;;;;;;;32.55;29.65;;;;;;;;;;4974868;28;20222;-82
2022/03/01 07:38:08;;;;;;;31.40;28.65;;;;;;;;;;4957601;28;20201;-82
2022/03/01 07:40:36;;;;;;;32.72;29.85;;;;;;;;;;4974613;28;20699;-83
2022/03/01 07:43:03;;;;;;;32.60;29.70;;;;;;;;;;4973158;28;20195;-82
2022/03/01 07:45:31;;;;;;;31.25;28.50;;;;;;;;;;4957350;28;20771;-83
2022/03/01 07:48:01;;;;;;;29.60;26.92;;;;;;;;;;4974656;28;20663;-83
2022/03/01 07:50:29;;;;;;;33.33;30.38;;;;;;;;;;4977798;28;20219;-83
2022/03/01 07:52:57;;;;;;;31.70;28.50;;;;;;;;;;4961346;28;20203;-83
2022/03/01 07:55:24;;;;;;;32.67;29.70;;;;;;;;;;4978111;28;20647;-82
2022/03/01 07:57:52;;;;;;;29.65;27.10;;;;;;;;;;4978458;28;20230;-81
2022/03/01 08:00:19;;;;;;;33.72;30.83;;;;;;;;;;4960926;28;20265;-82
2022/03/01 08:02:47;;;;;;;34.40;31.13;;;;;;;;;;4978634;28;20242;-81
2022/03/01 08:05:16;;;;;;;33.00;29.88;;;;;;;;;;4977841;28;20203;-82
2022/03/01 08:07:43;;;;;;;31.42;28.77;;;;;;;;;;4977808;28;20764;-82
2022/03/01 08:10:10;;;;;;;32.05;29.02;;;;;;;;;;4978323;28;20226;-82
2022/03/01 08:12:38;;;;;;;28.70;26.17;;;;;;;;;;4978554;28;20258;-82
2022/03/01 08:15:06;;;;;;;29.25;26.90;;;;;;;;;;4960857;28;20602;-82
2022/03/01 08:17:33;;;;;;;31.80;29.08;;;;;;;;;;4960748;28;20266;-82
2022/03/01 08:20:01;;;;;;;32.47;29.58;;;;;;;;;;4960834;28;20526;-82
2022/03/01 08:22:30;;;;;;;31.80;28.63;;;;;;;;;;4960684;28;20208;-83
2022/03/01 08:24:57;;;;;;;32.97;30.10;;;;;;;;;;4960492;28;20204;-81
2022/03/01 08:27:25;;;;;;;32.45;29.70;;;;;;;;;;4977751;28;20195;-82
2022/03/01 08:29:53;;;;;;;32.13;29.42;;;;;;;;;;4976846;28;20223;-82
2022/03/01 08:32:20;;;;;;;32.17;29.25;;;;;;;;;;4977345;28;20638;-82
2022/03/01 08:34:48;;;;;;;30.75;28.17;;;;;;;;;;4977274;28;20636;-80
2022/03/01 08:37:15;;;;;;;31.13;28.00;;;;;;;;;;4977515;28;20243;-80
2022/03/01 08:39:44;;;;;;;31.25;28.55;;;;;;;;;;4977302;28;20573;-82
2022/03/01 08:42:12;;;;;;;32.40;29.48;;;;;;;;;;4977347;28;20667;-80
2022/03/01 08:44:39;;;;;;;33.13;29.67;;;;;;;;;;4977043;28;20211;-79
2022/03/01 08:47:06;;;;;;;30.40;27.80;;;;;;;;;;4977148;28;20646;-80
2022/03/01 08:49:34;;;;;;;31.98;29.10;;;;;;;;;;4977492;28;20191;-83
2022/03/01 08:52:01;;;;;;;31.95;28.80;;;;;;;;;;4959534;28;20215;-80
2022/03/01 08:54:29;;;;;;;32.15;29.15;;;;;;;;;;4960205;28;20191;-80
2022/03/01 08:56:57;;;;;;;31.60;28.70;;;;;;;;;;4977265;28;20191;-80
2022/03/01 08:59:25;;;;;;;31.90;29.00;;;;;;;;;;4976954;28;20596;-81
2022/03/01 09:01:52;;;;;;;31.20;28.70;;;;;;;;;;4977360;28;20278;-91
2022/03/01 09:04:20;;;;;;;32.35;29.65;;;;;;;;;;4977584;28;20192;-82
2022/03/01 09:06:48;;;;;;;31.80;28.90;;;;;;;;;;4977119;28;20251;-80
2022/03/01 09:09:15;;;;;;;32.88;30.05;;;;;;;;;;4976649;28;20611;-79
2022/03/01 09:11:43;;;;;;;33.90;30.35;;;;;;;;;;4976519;28;20219;-81
2022/03/01 09:14:12;;;;;;;30.50;27.80;;;;;;;;;;4976777;28;20587;-80
2022/03/01 09:16:39;;;;;;;29.50;26.90;;;;;;;;;;4976755;28;20208;-80
2022/03/01 09:19:08;;;;;;;29.60;27.13;;;;;;;;;;4976821;28;20211;-80
2022/03/01 09:21:36;;;;;;;31.20;28.50;;;;;;;;;;4959357;28;20210;-81
2022/03/01 09:24:03;;;;;;;32.65;29.55;;;;;;;;;;4976769;28;20196;-80
2022/03/01 09:26:31;;;;;;;30.90;28.25;;;;;;;;;;4976438;28;20334;-80
2022/03/01 09:28:58;;;;;;;30.98;28.02;;;;;;;;;;4976683;28;20549;-81
2022/03/01 09:31:27;;;;;;;31.10;28.23;;;;;;;;;;4976385;28;20223;-81
2022/03/01 09:33:55;;;;;;;30.17;27.58;;;;;;;;;;4976726;28;20194;-80
2022/03/01 09:36:22;;;;;;;31.27;28.67;;;;;;;;;;4959186;28;20250;-80
2022/03/01 09:38:50;;;;;;;29.60;27.00;;;;;;;;;;4976340;28;20195;-80
2022/03/01 09:41:17;;;;;;;29.85;27.45;;;;;;;;;;4976653;28;20199;-80
2022/03/01 09:43:45;;;;;;;30.85;28.08;;;;;;;;;;4976067;28;20660;-80
2022/03/01 09:46:12;;;;;;;31.40;28.65;;;;;;;;;;4958922;28;20270;-83
2022/03/01 09:48:41;;;;;;;30.35;27.85;;;;;;;;;;4976092;28;20639;-81
2022/03/01 09:51:09;;;;;;;34.85;27.92;;;;;;;;;;4976087;28;20610;-81
2022/03/01 09:53:37;;;;;;;31.50;28.95;;;;;;;;;;4975938;28;20665;-81
2022/03/01 09:56:05;;;;;;;32.45;29.48;;;;;;;;;;4976400;28;20195;-81
2022/03/01 09:58:32;;;;;;;31.48;28.73;;;;;;;;;;4958835;28;20208;-80
2022/03/01 10:00:59;;;;;;;31.55;28.08;;;;;;;;;;4975979;28;20199;-81
2022/03/01 10:03:29;;;;;;;30.80;28.25;;;;;;;;;;4976289;28;20250;-81
2022/03/01 10:06:06;;;;;;;29.60;27.05;;;;;;;;;;4975937;28;20200;-81
2022/03/01 10:08:33;;;;;;;29.95;27.25;;;;;;;;;;4976230;28;20192;-81
2022/03/01 10:11:01;;;;;;;30.83;28.23;;;;;;;;;;4975498;28;20230;-80
2022/03/01 10:13:29;;;;;;;30.70;28.10;;;;;;;;;;4975325;28;20195;-81
2022/03/01 10:16:03;;;;;;;30.25;27.83;;;;;;;;;;4975803;28;20554;-80
2022/03/01 10:18:32;;;;;;;31.52;28.85;;;;;;;;;;4976094;28;20282;-81
2022/03/01 10:21:04;;;;;;;29.80;27.30;;;;;;;;;;4975408;28;20207;-81
2022/03/01 10:23:31;;;;;;;29.52;27.02;;;;;;;;;;4975773;28;20203;-81
2022/03/01 10:25:59;;;;;;;30.88;28.25;;;;;;;;;;4975628;28;20195;-79
2022/03/01 10:28:34;;;;;;;30.65;27.90;;;;;;;;;;4958375;28;20218;-79
2022/03/01 10:31:10;;;;;;;30.33;27.77;;;;;;;;;;4975365;28;20275;-79
2022/03/01 10:33:37;;;;;;;29.60;26.90;;;;;;;;;;4975461;28;20214;-79
2022/03/01 10:36:06;;;;;;;30.88;27.98;;;;;;;;;;4975122;28;20310;-79
2022/03/01 10:38:35;;;;;;;29.48;27.23;;;;;;;;;;4975104;28;20198;-80
2022/03/01 10:41:03;;;;;;;28.25;25.95;;;;;;;;;;4975505;28;20249;-79
2022/03/01 10:43:31;;;;;;;30.40;28.00;;;;;;;;;;4975024;28;20207;-79
2022/03/01 10:46:02;;;;;;;30.63;27.92;;;;;;;;;;4975091;28;20567;-79
2022/03/01 10:48:30;;;;;;;31.15;28.63;;;;;;;;;;4975322;28;20192;-80
2022/03/01 10:51:01;;;;;;;31.45;28.80;;;;;;;;;;4975249;28;20215;-80
2022/03/01 10:53:35;;;;;;;28.98;26.48;;;;;;;;;;4975077;28;20219;-80
2022/03/01 10:56:03;;;;;;;30.42;27.88;;;;;;;;;;4974794;28;20198;-80
2022/03/01 10:58:31;;;;;;;30.95;28.50;;;;;;;;;;4974934;28;20195;-80
2022/03/01 11:00:58;;;;;;;29.92;27.63;;;;;;;;;;4974952;28;20330;-81
2022/03/01 11:03:27;;;;;;;30.00;27.55;;;;;;;;;;4974818;28;20196;-80
2022/03/01 11:05:55;;;;;;;31.23;28.27;;;;;;;;;;4974798;28;20203;-80
2022/03/01 11:08:24;;;;;;;30.45;27.85;;;;;;;;;;4974978;28;20222;-79
2022/03/01 11:10:53;;;;;;;29.60;27.20;;;;;;;;;;4974925;28;20302;-80
2022/03/01 11:13:22;;;;;;;30.52;28.17;;;;;;;;;;4957313;28;20242;-80
2022/03/01 11:15:55;;;;;;;31.13;28.27;;;;;;;;;;4974707;28;20195;-80
2022/03/01 11:18:28;;;;;;;29.60;27.15;;;;;;;;;;4975148;28;20634;-80
2022/03/01 11:20:57;;;;;;;29.67;27.27;;;;;;;;;;4974784;28;20196;-80
2022/03/01 11:23:25;;;;;;;30.05;27.65;;;;;;;;;;4974418;28;20210;-92
2022/03/01 11:25:54;;;;;;;30.77;28.17;;;;;;;;;;4974233;28;20203;-80
2022/03/01 11:28:30;;;;;;;30.37;27.93;;;;;;;;;;4974826;28;20219;-78
2022/03/01 11:30:57;;;;;;;30.23;27.55;;;;;;;;;;4974796;28;20486;-80
2022/03/01 11:33:26;;;;;;;32.08;29.27;;;;;;;;;;4974465;28;20192;-80
2022/03/01 11:35:55;;;;;;;32.47;29.83;;;;;;;;;;4974395;28;20258;-86
2022/03/01 11:38:26;;;;;;;30.35;28.02;;;;;;;;;;4974203;28;20254;-78
2022/03/01 11:41:00;;;;;;;31.98;29.48;;;;;;;;;;4974285;28;20195;-80
2022/03/01 11:43:31;;;;;;;31.48;28.92;;;;;;;;;;4974168;28;20191;-79
2022/03/01 11:46:01;;;;;;;30.57;27.87;;;;;;;;;;4974253;28;20325;-79
2022/03/01 11:48:29;;;;;;;31.10;28.55;;;;;;;;;;4974028;28;20805;-79
2022/03/01 11:50:57;;;;;;;30.80;28.37;;;;;;;;;;4973952;28;20747;-80
2022/03/01 11:53:26;;;;;;;30.70;28.27;;;;;;;;;;4974094;28;20410;-80
2022/03/01 11:55:57;;;;;;;30.67;28.23;;;;;;;;;;4974580;28;20429;-80
2022/03/01 11:58:25;;;;;;;30.20;27.70;;;;;;;;;;4974102;28;20917;-81
2022/03/01 12:00:53;;;;;;;30.55;28.25;;;;;;;;;;4974255;28;20450;-80
2022/03/01 12:03:21;;;;;;;31.23;28.53;;;;;;;;;;4974368;28;20386;-80
2022/03/01 12:05:50;;;;;;;32.03;29.33;;;;;;;;;;4974463;28;20822;-80
2022/03/01 12:08:19;;;;;;;30.50;27.93;;;;;;;;;;4974272;28;20514;-80
2022/03/01 12:10:53;;;;;;;28.27;26.00;;;;;;;;;;4974347;28;20447;-81
2022/03/01 12:13:23;;;;;;;32.03;29.40;;;;;;;;;;4974856;28;20458;-87
2022/03/01 12:16:00;;;;;;;31.83;28.93;;;;;;;;;;4974906;28;20446;-81
2022/03/01 12:18:31;;;;;;;30.20;27.90;;;;;;;;;;4974463;28;20431;-80
2022/03/01 12:21:02;;;;;;;30.23;27.73;;;;;;;;;;4973820;28;20983;-80
2022/03/01 12:23:31;;;;;;;30.63;28.20;;;;;;;;;;4974114;28;20447;-81
2022/03/01 12:26:01;;;;;;;31.57;29.17;;;;;;;;;;4974410;28;20194;-81
2022/03/01 12:28:32;;;;;;;31.30;28.73;;;;;;;;;;4973947;28;20450;-80
2022/03/01 12:30:59;;;;;;;31.63;28.83;;;;;;;;;;4974204;28;20808;-80
2022/03/01 12:33:26;;;;;;;32.57;29.73;;;;;;;;;;4974214;28;20447;-79
2022/03/01 12:36:03;;;;;;;32.47;29.50;;;;;;;;;;4976741;28;20514;-78
2022/03/01 12:38:31;;;;;;;30.30;28.08;;;;;;;;;;4977095;28;20617;-78
2022/03/01 12:41:08;;;;;;;29.93;27.53;;;;;;;;;;4960202;28;20720;-79
2022/03/01 12:43:37;;;;;;;31.70;29.27;;;;;;;;;;4977313;28;20420;-80
2022/03/01 12:46:04;;;;;;;30.27;27.97;;;;;;;;;;4977054;28;20235;-80
2022/03/01 12:48:32;;;;;;;31.53;29.00;;;;;;;;;;4977107;28;20425;-79
2022/03/01 12:50:59;;;;;;;30.92;28.33;;;;;;;;;;4977511;28;20417;-81
2022/03/01 12:53:26;;;;;;;31.57;28.83;;;;;;;;;;4978047;28;20195;-82
2022/03/01 12:55:55;;;;;;;30.77;28.38;;;;;;;;;;4977643;28;20804;-80
2022/03/01 12:58:23;;;;;;;29.63;27.52;;;;;;;;;;4977577;28;20199;-82
2022/03/01 13:00:52;;;;;;;31.40;28.60;;;;;;;;;;4977860;28;20254;-81
2022/03/01 13:03:26;;;;;;;30.43;28.23;;;;;;;;;;4977385;28;20421;-82
2022/03/01 13:06:04;;;;;;;31.27;28.67;;;;;;;;;;4977559;28;20513;-80
2022/03/01 13:08:32;;;;;;;30.10;27.80;;;;;;;;;;4977169;28;20425;-82
2022/03/01 13:10:59;;;;;;;30.40;28.10;;;;;;;;;;4960426;28;20447;-80
2022/03/01 13:13:27;;;;;;;31.43;28.63;;;;;;;;;;4977067;28;20883;-81
2022/03/01 13:16:02;;;;;;;31.33;28.73;;;;;;;;;;4960107;28;20410;-82
2022/03/01 13:18:30;;;;;;;31.40;28.60;;;;;;;;;;4977628;28;20223;-81
2022/03/01 13:20:57;;;;;;;29.23;26.80;;;;;;;;;;4977379;28;20447;-82
2022/03/01 13:23:29;;;;;;;29.77;27.37;;;;;;;;;;4960496;28;20538;-81
2022/03/01 13:25:57;;;;;;;29.73;27.43;;;;;;;;;;4977270;28;20486;-82
2022/03/01 13:28:32;;;;;;;29.73;27.50;;;;;;;;;;4960422;28;20418;-82
2022/03/01 13:31:00;;;;;;;31.07;28.67;;;;;;;;;;4977200;28;20442;-80
2022/03/01 13:33:28;;;;;;;31.10;28.70;;;;;;;;;;4959458;28;20523;-80
2022/03/01 13:35:56;;;;;;;31.37;28.93;;;;;;;;;;4977120;28;20410;-80
2022/03/01 13:38:25;;;;;;;31.03;28.60;;;;;;;;;;4976726;28;20978;-81
2022/03/01 13:40:52;;;;;;;29.87;27.47;;;;;;;;;;4976759;28;20558;-80
2022/03/01 13:43:25;;;;;;;29.97;27.70;;;;;;;;;;4976792;28;20426;-80
2022/03/01 13:45:56;;;;;;;30.63;28.20;;;;;;;;;;4976239;28;20928;-80
2022/03/01 13:48:27;;;;;;;31.40;28.90;;;;;;;;;;4976254;28;20468;-81
2022/03/01 13:51:01;;;;;;;30.70;28.17;;;;;;;;;;4976723;28;20439;-86
2022/03/01 13:53:28;;;;;;;30.40;27.83;;;;;;;;;;4976960;28;20517;-81
2022/03/01 13:55:56;;;;;;;30.00;27.87;;;;;;;;;;4976616;28;20442;-82
2022/03/01 13:58:25;;;;;;;30.40;27.90;;;;;;;;;;4977212;28;20418;-89
2022/03/01 14:00:54;;;;;;;30.87;28.47;;;;;;;;;;4976859;28;20446;-83
2022/03/01 14:03:23;;;;;;;30.93;28.43;;;;;;;;;;4977261;28;20779;-92
2022/03/01 14:05:56;;;;;;;32.23;29.60;;;;;;;;;;4977536;28;20426;-85
2022/03/01 14:08:24;;;;;;;29.80;27.60;;;;;;;;;;4976470;28;20414;-84
2022/03/01 14:10:53;;;;;;;32.20;29.80;;;;;;;;;;4976897;28;20433;-89
2022/03/01 14:13:23;;;;;;;32.40;29.90;;;;;;;;;;4976992;28;20453;-89
2022/03/01 14:15:52;;;;;;;31.13;28.73;;;;;;;;;;4976494;28;20454;-90
2022/03/01 14:18:22;;;;;;;31.33;29.03;;;;;;;;;;4976909;28;20417;-87
2022/03/01 14:20:52;;;;;;;31.13;28.37;;;;;;;;;;4976664;28;20443;-93
2022/03/01 14:23:21;;;;;;;29.10;26.90;;;;;;;;;;4977014;28;20469;-93